sensor_id;sensor_type;location;lat;lon;timestamp;temperature;humidity
53782;DHT22;39692;53.114;7.060;2023-03-05T12:06:56;15.20;61.30
53782;DHT22;39692;53.114;7.060;2023-03-05T12:09:46;15.80;65.90
53782;DHT22;39692;53.114;7.060;2023-03-05T12:17:38;17.00;66.90
53782;DHT22;39692;53.114;7.060;2023-03-05T12:20:16;15.50;72.70
53782;DHT22;39692;53.114;7.060;2023-03-05T12:22:43;14.20;75.30
53782;DHT22;39692;53.114;7.060;2023-03-05T12:25:32;13.00;78.20
53782;DHT22;39692;53.114;7.060;2023-03-05T12:33:04;16.00;91.80
53782;DHT22;39692;53.114;7.060;2023-03-05T13:04:18;13.60;95.90
53782;DHT22;39692;53.114;7.060;2023-03-05T13:07:03;13.00;86.80
53782;DHT22;39692;53.114;7.060;2023-03-05T13:09:31;13.00;85.60
53782;DHT22;39692;53.114;7.060;2023-03-05T13:12:00;12.90;88.10
53782;DHT22;39692;53.114;7.060;2023-03-05T13:17:30;11.90;89.60
53782;DHT22;39692;53.114;7.060;2023-03-05T13:19:59;11.40;90.90
53782;DHT22;39692;53.114;7.060;2023-03-05T13:22:25;11.20;92.10
53782;DHT22;39692;53.114;7.060;2023-03-05T13:25:14;10.80;92.40
53782;DHT22;39692;53.114;7.060;2023-03-05T13:27:41;10.70;91.90
53782;DHT22;39692;53.114;7.060;2023-03-05T13:30:25;10.50;93.60
53782;DHT22;39692;53.114;7.060;2023-03-05T13:32:52;11.10;93.80
53782;DHT22;39692;53.114;7.060;2023-03-05T13:35:19;11.70;92.80
53782;DHT22;39692;53.114;7.060;2023-03-05T13:37:45;11.90;92.50
53782;DHT22;39692;53.114;7.060;2023-03-05T13:40:22;12.00;92.20
53782;DHT22;39692;53.114;7.060;2023-03-05T13:42:49;11.80;92.30
53782;DHT22;39692;53.114;7.060;2023-03-05T13:45:27;11.90;92.40
53782;DHT22;39692;53.114;7.060;2023-03-05T13:47:56;11.80;91.60
53782;DHT22;39692;53.114;7.060;2023-03-05T13:50:25;11.50;92.50
53782;DHT22;39692;53.114;7.060;2023-03-05T13:52:52;11.50;92.50
53782;DHT22;39692;53.114;7.060;2023-03-05T13:55:18;11.30;92.50
53782;DHT22;39692;53.114;7.060;2023-03-05T13:57:49;11.30;92.60
53782;DHT22;39692;53.114;7.060;2023-03-05T14:00:44;11.30;92.90
53782;DHT22;39692;53.114;7.060;2023-03-05T14:03:22;11.10;93.20
53782;DHT22;39692;53.114;7.060;2023-03-05T14:05:49;11.00;92.90
53782;DHT22;39692;53.114;7.060;2023-03-05T14:08:19;10.70;93.90
53782;DHT22;39692;53.114;7.060;2023-03-05T14:10:46;10.50;94.90
53782;DHT22;39692;53.114;7.060;2023-03-05T14:13:17;10.30;95.30
53782;DHT22;39692;53.114;7.060;2023-03-05T14:16:05;10.30;95.90
53782;DHT22;39692;53.114;7.060;2023-03-05T14:18:31;10.30;95.50
53782;DHT22;39692;53.114;7.060;2023-03-05T14:21:00;10.30;96.30
53782;DHT22;39692;53.114;7.060;2023-03-05T14:31:59;9.70;96.70
53782;DHT22;39692;53.114;7.060;2023-03-05T14:34:33;9.60;99.00
53782;DHT22;39692;53.114;7.060;2023-03-05T14:37:06;9.60;98.80
53782;DHT22;39692;53.114;7.060;2023-03-05T14:39:43;9.60;98.70
53782;DHT22;39692;53.114;7.060;2023-03-05T14:44:56;9.60;99.90
53782;DHT22;39692;53.114;7.060;2023-03-05T14:47:24;9.80;99.90
53782;DHT22;39692;53.114;7.060;2023-03-05T14:49:50;9.90;99.90
53782;DHT22;39692;53.114;7.060;2023-03-05T14:52:18;9.90;99.80
53782;DHT22;39692;53.114;7.060;2023-03-05T14:54:44;9.80;99.40
53782;DHT22;39692;53.114;7.060;2023-03-05T14:57:21;9.70;99.50
53782;DHT22;39692;53.114;7.060;2023-03-05T14:59:48;9.50;99.90
53782;DHT22;39692;53.114;7.060;2023-03-05T15:02:22;9.40;99.90
53782;DHT22;39692;53.114;7.060;2023-03-05T15:04:49;9.40;99.90
53782;DHT22;39692;53.114;7.060;2023-03-05T15:07:24;9.20;99.90
53782;DHT22;39692;53.114;7.060;2023-03-05T15:09:51;9.20;99.90
53782;DHT22;39692;53.114;7.060;2023-03-05T15:12:17;9.00;99.90
53782;DHT22;39692;53.114;7.060;2023-03-05T15:14:43;8.90;99.90
53782;DHT22;39692;53.114;7.060;2023-03-05T15:17:21;8.80;99.90
53782;DHT22;39692;53.114;7.060;2023-03-05T15:19:48;8.60;99.90
53782;DHT22;39692;53.114;7.060;2023-03-05T15:22:14;8.50;99.90
53782;DHT22;39692;53.114;7.060;2023-03-05T15:24:40;8.40;99.90
53782;DHT22;39692;53.114;7.060;2023-03-05T15:27:06;8.30;99.90
53782;DHT22;39692;53.114;7.060;2023-03-05T15:29:32;8.30;99.90
53782;DHT22;39692;53.114;7.060;2023-03-05T15:31:58;8.30;99.90
53782;DHT22;39692;53.114;7.060;2023-03-05T15:34:26;8.10;99.90
53782;DHT22;39692;53.114;7.060;2023-03-05T15:36:52;8.10;99.90
53782;DHT22;39692;53.114;7.060;2023-03-05T15:39:17;8.10;99.90
53782;DHT22;39692;53.114;7.060;2023-03-05T15:41:43;8.20;99.90
53782;DHT22;39692;53.114;7.060;2023-03-05T15:44:09;7.90;99.90
53782;DHT22;39692;53.114;7.060;2023-03-05T15:46:35;7.90;99.90
53782;DHT22;39692;53.114;7.060;2023-03-05T15:49:02;8.00;99.90
53782;DHT22;39692;53.114;7.060;2023-03-05T15:51:28;8.00;99.90
53782;DHT22;39692;53.114;7.060;2023-03-05T15:53:54;8.40;99.90
53782;DHT22;39692;53.114;7.060;2023-03-05T15:56:19;8.00;99.90
53782;DHT22;39692;53.114;7.060;2023-03-05T15:58:48;7.70;99.90
53782;DHT22;39692;53.114;7.060;2023-03-05T16:01:14;7.60;99.90
53782;DHT22;39692;53.114;7.060;2023-03-05T16:03:40;7.60;99.90
53782;DHT22;39692;53.114;7.060;2023-03-05T16:06:08;7.30;99.90
53782;DHT22;39692;53.114;7.060;2023-03-05T16:08:35;7.50;99.90
53782;DHT22;39692;53.114;7.060;2023-03-05T16:11:01;7.20;99.90
53782;DHT22;39692;53.114;7.060;2023-03-05T16:13:28;7.00;99.90
53782;DHT22;39692;53.114;7.060;2023-03-05T16:15:55;7.20;99.90
53782;DHT22;39692;53.114;7.060;2023-03-05T16:18:22;7.20;99.90
53782;DHT22;39692;53.114;7.060;2023-03-05T16:20:50;7.30;99.90
53782;DHT22;39692;53.114;7.060;2023-03-05T16:23:16;7.20;99.90
53782;DHT22;39692;53.114;7.060;2023-03-05T16:25:41;7.20;99.90
53782;DHT22;39692;53.114;7.060;2023-03-05T16:28:07;7.20;99.90
53782;DHT22;39692;53.114;7.060;2023-03-05T16:30:34;7.40;99.90
53782;DHT22;39692;53.114;7.060;2023-03-05T16:33:00;7.20;99.90
53782;DHT22;39692;53.114;7.060;2023-03-05T16:35:26;6.70;99.90
53782;DHT22;39692;53.114;7.060;2023-03-05T16:37:52;6.50;99.90
53782;DHT22;39692;53.114;7.060;2023-03-05T16:40:17;6.20;99.90
53782;DHT22;39692;53.114;7.060;2023-03-05T16:42:43;6.20;99.90
53782;DHT22;39692;53.114;7.060;2023-03-05T16:45:09;6.10;99.90
53782;DHT22;39692;53.114;7.060;2023-03-05T16:47:36;6.10;99.90
53782;DHT22;39692;53.114;7.060;2023-03-05T16:50:01;6.10;99.90
53782;DHT22;39692;53.114;7.060;2023-03-05T16:52:27;5.90;99.90
53782;DHT22;39692;53.114;7.060;2023-03-05T16:54:53;6.10;99.90
53782;DHT22;39692;53.114;7.060;2023-03-05T16:57:19;6.00;99.90
53782;DHT22;39692;53.114;7.060;2023-03-05T16:59:48;6.00;99.90
53782;DHT22;39692;53.114;7.060;2023-03-05T17:02:13;6.00;99.90
53782;DHT22;39692;53.114;7.060;2023-03-05T17:04:40;5.80;99.90
53782;DHT22;39692;53.114;7.060;2023-03-05T17:07:06;5.70;99.90
53782;DHT22;39692;53.114;7.060;2023-03-05T17:09:32;5.60;99.90
53782;DHT22;39692;53.114;7.060;2023-03-05T17:11:58;6.10;99.90
53782;DHT22;39692;53.114;7.060;2023-03-05T17:14:24;6.10;99.90
53782;DHT22;39692;53.114;7.060;2023-03-05T17:16:49;5.60;99.90
53782;DHT22;39692;53.114;7.060;2023-03-05T17:19:15;5.60;99.90
53782;DHT22;39692;53.114;7.060;2023-03-05T17:21:41;5.70;99.90
53782;DHT22;39692;53.114;7.060;2023-03-05T17:24:07;5.60;99.90
53782;DHT22;39692;53.114;7.060;2023-03-05T17:26:33;5.50;99.90
53782;DHT22;39692;53.114;7.060;2023-03-05T17:29:01;5.50;99.90
53782;DHT22;39692;53.114;7.060;2023-03-05T17:31:28;5.50;99.90
53782;DHT22;39692;53.114;7.060;2023-03-05T17:33:54;5.50;99.90
53782;DHT22;39692;53.114;7.060;2023-03-05T17:36:21;5.80;99.90
53782;DHT22;39692;53.114;7.060;2023-03-05T17:38:47;5.50;99.90
53782;DHT22;39692;53.114;7.060;2023-03-05T17:41:14;5.40;99.90
53782;DHT22;39692;53.114;7.060;2023-03-05T17:43:41;5.50;99.90
53782;DHT22;39692;53.114;7.060;2023-03-05T17:46:07;5.40;99.90
53782;DHT22;39692;53.114;7.060;2023-03-05T17:48:33;5.30;99.90
53782;DHT22;39692;53.114;7.060;2023-03-05T17:51:00;5.70;99.90
53782;DHT22;39692;53.114;7.060;2023-03-05T17:53:26;5.50;99.90
53782;DHT22;39692;53.114;7.060;2023-03-05T17:55:52;5.60;99.90
53782;DHT22;39692;53.114;7.060;2023-03-05T17:58:18;5.40;99.90
53782;DHT22;39692;53.114;7.060;2023-03-05T18:00:44;5.30;99.90
53782;DHT22;39692;53.114;7.060;2023-03-05T18:03:09;5.00;99.90
53782;DHT22;39692;53.114;7.060;2023-03-05T18:05:35;5.50;99.90
53782;DHT22;39692;53.114;7.060;2023-03-05T18:08:01;5.20;99.90
53782;DHT22;39692;53.114;7.060;2023-03-05T18:10:29;5.10;99.90
53782;DHT22;39692;53.114;7.060;2023-03-05T18:12:56;5.40;99.90
53782;DHT22;39692;53.114;7.060;2023-03-05T18:15:23;5.00;99.90
53782;DHT22;39692;53.114;7.060;2023-03-05T18:17:50;5.00;99.90
53782;DHT22;39692;53.114;7.060;2023-03-05T18:20:32;5.20;99.90
53782;DHT22;39692;53.114;7.060;2023-03-05T18:22:59;5.30;99.90
53782;DHT22;39692;53.114;7.060;2023-03-05T18:25:26;5.10;99.90
53782;DHT22;39692;53.114;7.060;2023-03-05T18:27:59;4.80;99.90
53782;DHT22;39692;53.114;7.060;2023-03-05T18:30:26;4.70;99.90
53782;DHT22;39692;53.114;7.060;2023-03-05T18:32:52;5.20;99.90
53782;DHT22;39692;53.114;7.060;2023-03-05T18:35:18;4.80;99.90
53782;DHT22;39692;53.114;7.060;2023-03-05T18:37:44;4.70;99.90
53782;DHT22;39692;53.114;7.060;2023-03-05T18:40:15;4.90;99.90
53782;DHT22;39692;53.114;7.060;2023-03-05T18:42:41;4.90;99.90
53782;DHT22;39692;53.114;7.060;2023-03-05T18:45:07;5.20;99.90
53782;DHT22;39692;53.114;7.060;2023-03-05T18:47:35;4.80;99.90
53782;DHT22;39692;53.114;7.060;2023-03-05T18:50:01;4.80;99.90
53782;DHT22;39692;53.114;7.060;2023-03-05T18:52:27;5.20;99.90
53782;DHT22;39692;53.114;7.060;2023-03-05T18:54:52;4.90;99.90
53782;DHT22;39692;53.114;7.060;2023-03-05T18:57:18;4.90;99.90
53782;DHT22;39692;53.114;7.060;2023-03-05T18:59:44;5.10;99.90
53782;DHT22;39692;53.114;7.060;2023-03-05T19:02:13;5.10;99.90
53782;DHT22;39692;53.114;7.060;2023-03-05T19:04:40;5.30;99.90
53782;DHT22;39692;53.114;7.060;2023-03-05T19:07:06;4.90;99.90
53782;DHT22;39692;53.114;7.060;2023-03-05T19:09:32;4.90;99.90
53782;DHT22;39692;53.114;7.060;2023-03-05T19:12:18;4.90;99.90
53782;DHT22;39692;53.114;7.060;2023-03-05T19:14:44;4.80;99.90
53782;DHT22;39692;53.114;7.060;2023-03-05T19:17:09;5.10;99.90
53782;DHT22;39692;53.114;7.060;2023-03-05T19:19:35;4.90;99.90
53782;DHT22;39692;53.114;7.060;2023-03-05T19:22:01;4.60;99.90
53782;DHT22;39692;53.114;7.060;2023-03-05T19:24:28;5.00;99.90
53782;DHT22;39692;53.114;7.060;2023-03-05T19:26:55;4.70;99.90
53782;DHT22;39692;53.114;7.060;2023-03-05T19:29:26;4.50;99.90
53782;DHT22;39692;53.114;7.060;2023-03-05T19:31:52;5.10;99.90
53782;DHT22;39692;53.114;7.060;2023-03-05T19:34:18;4.70;99.90
53782;DHT22;39692;53.114;7.060;2023-03-05T19:36:46;4.50;99.90
53782;DHT22;39692;53.114;7.060;2023-03-05T19:39:12;5.10;99.90
53782;DHT22;39692;53.114;7.060;2023-03-05T19:41:38;5.00;99.90
53782;DHT22;39692;53.114;7.060;2023-03-05T19:44:04;4.60;99.90
53782;DHT22;39692;53.114;7.060;2023-03-05T19:46:30;4.70;99.90
53782;DHT22;39692;53.114;7.060;2023-03-05T19:48:56;4.90;99.90
53782;DHT22;39692;53.114;7.060;2023-03-05T19:51:24;4.50;99.90
53782;DHT22;39692;53.114;7.060;2023-03-05T19:53:50;4.80;99.90
53782;DHT22;39692;53.114;7.060;2023-03-05T19:56:17;4.40;99.90
53782;DHT22;39692;53.114;7.060;2023-03-05T19:58:44;4.80;99.90
53782;DHT22;39692;53.114;7.060;2023-03-05T20:01:24;4.50;99.90
53782;DHT22;39692;53.114;7.060;2023-03-05T20:03:54;4.40;99.90
53782;DHT22;39692;53.114;7.060;2023-03-05T20:06:20;4.90;99.90
53782;DHT22;39692;53.114;7.060;2023-03-05T20:08:47;4.70;99.90
53782;DHT22;39692;53.114;7.060;2023-03-05T20:11:14;4.90;99.90
53782;DHT22;39692;53.114;7.060;2023-03-05T20:13:40;4.40;99.90
53782;DHT22;39692;53.114;7.060;2023-03-05T20:16:19;4.70;99.90
53782;DHT22;39692;53.114;7.060;2023-03-05T20:18:46;4.70;99.90
53782;DHT22;39692;53.114;7.060;2023-03-05T20:21:21;4.70;99.90
53782;DHT22;39692;53.114;7.060;2023-03-05T20:23:59;4.70;99.90
53782;DHT22;39692;53.114;7.060;2023-03-05T20:26:26;4.80;99.90
53782;DHT22;39692;53.114;7.060;2023-03-05T20:28:53;4.70;99.90
53782;DHT22;39692;53.114;7.060;2023-03-05T20:31:22;5.10;99.90
53782;DHT22;39692;53.114;7.060;2023-03-05T20:33:48;4.60;99.90
53782;DHT22;39692;53.114;7.060;2023-03-05T20:36:13;5.00;99.90
53782;DHT22;39692;53.114;7.060;2023-03-05T20:38:39;4.60;99.90
53782;DHT22;39692;53.114;7.060;2023-03-05T20:41:08;5.00;99.90
53782;DHT22;39692;53.114;7.060;2023-03-05T20:43:37;4.60;99.90
53782;DHT22;39692;53.114;7.060;2023-03-05T20:46:03;4.90;99.90
53782;DHT22;39692;53.114;7.060;2023-03-05T20:48:31;4.50;99.90
53782;DHT22;39692;53.114;7.060;2023-03-05T20:50:58;5.00;99.90
53782;DHT22;39692;53.114;7.060;2023-03-05T20:53:34;5.00;99.90
53782;DHT22;39692;53.114;7.060;2023-03-05T20:56:00;4.80;99.90
53782;DHT22;39692;53.114;7.060;2023-03-05T20:58:25;5.10;99.90
53782;DHT22;39692;53.114;7.060;2023-03-05T21:00:51;4.80;99.90
53782;DHT22;39692;53.114;7.060;2023-03-05T21:03:17;4.80;99.90
53782;DHT22;39692;53.114;7.060;2023-03-05T21:05:43;4.80;99.90
53782;DHT22;39692;53.114;7.060;2023-03-05T21:08:09;4.40;99.90
53782;DHT22;39692;53.114;7.060;2023-03-05T21:10:36;4.40;99.90
53782;DHT22;39692;53.114;7.060;2023-03-05T21:13:02;4.40;99.90
53782;DHT22;39692;53.114;7.060;2023-03-05T21:15:29;4.80;99.90
53782;DHT22;39692;53.114;7.060;2023-03-05T21:17:55;4.50;99.90
53782;DHT22;39692;53.114;7.060;2023-03-05T21:20:23;4.80;99.90
53782;DHT22;39692;53.114;7.060;2023-03-05T21:22:52;4.90;99.90
53782;DHT22;39692;53.114;7.060;2023-03-05T21:25:23;4.70;99.90
53782;DHT22;39692;53.114;7.060;2023-03-05T21:27:55;4.60;99.90
53782;DHT22;39692;53.114;7.060;2023-03-05T21:30:29;4.50;99.90
53782;DHT22;39692;53.114;7.060;2023-03-05T21:33:00;4.60;99.90
53782;DHT22;39692;53.114;7.060;2023-03-05T21:35:27;4.80;99.90
53782;DHT22;39692;53.114;7.060;2023-03-05T21:37:52;4.70;99.90
53782;DHT22;39692;53.114;7.060;2023-03-05T21:40:19;4.90;99.90
53782;DHT22;39692;53.114;7.060;2023-03-05T21:42:46;4.60;99.90
53782;DHT22;39692;53.114;7.060;2023-03-05T21:45:14;5.00;99.90
53782;DHT22;39692;53.114;7.060;2023-03-05T21:47:40;4.50;99.90
53782;DHT22;39692;53.114;7.060;2023-03-05T21:50:07;4.40;99.90
53782;DHT22;39692;53.114;7.060;2023-03-05T21:52:33;4.70;99.90
53782;DHT22;39692;53.114;7.060;2023-03-05T21:54:59;4.90;99.90
53782;DHT22;39692;53.114;7.060;2023-03-05T21:57:25;5.00;99.90
53782;DHT22;39692;53.114;7.060;2023-03-05T21:59:52;4.90;99.90
53782;DHT22;39692;53.114;7.060;2023-03-05T22:02:19;4.50;99.90
53782;DHT22;39692;53.114;7.060;2023-03-05T22:04:46;4.90;99.90
53782;DHT22;39692;53.114;7.060;2023-03-05T22:07:12;5.20;99.90
53782;DHT22;39692;53.114;7.060;2023-03-05T22:09:38;5.00;99.90
53782;DHT22;39692;53.114;7.060;2023-03-05T22:12:04;5.20;99.90
53782;DHT22;39692;53.114;7.060;2023-03-05T22:14:31;4.60;99.90
53782;DHT22;39692;53.114;7.060;2023-03-05T22:17:01;4.70;99.90
53782;DHT22;39692;53.114;7.060;2023-03-05T22:19:28;4.80;99.90
53782;DHT22;39692;53.114;7.060;2023-03-05T22:21:56;4.80;99.90
53782;DHT22;39692;53.114;7.060;2023-03-05T22:26:50;4.50;99.90
53782;DHT22;39692;53.114;7.060;2023-03-05T22:29:16;4.50;99.90
53782;DHT22;39692;53.114;7.060;2023-03-05T22:31:43;4.90;99.90
53782;DHT22;39692;53.114;7.060;2023-03-05T22:34:08;4.90;99.90
53782;DHT22;39692;53.114;7.060;2023-03-05T22:36:35;4.80;99.90
53782;DHT22;39692;53.114;7.060;2023-03-05T22:39:00;5.10;99.90
53782;DHT22;39692;53.114;7.060;2023-03-05T22:41:26;4.80;99.90
53782;DHT22;39692;53.114;7.060;2023-03-05T22:43:52;4.80;99.90
53782;DHT22;39692;53.114;7.060;2023-03-05T22:46:20;5.00;99.90
53782;DHT22;39692;53.114;7.060;2023-03-05T22:48:46;5.00;99.90
53782;DHT22;39692;53.114;7.060;2023-03-05T22:51:13;4.70;99.90
53782;DHT22;39692;53.114;7.060;2023-03-05T22:53:39;4.80;99.90
53782;DHT22;39692;53.114;7.060;2023-03-05T22:56:13;4.70;99.90
53782;DHT22;39692;53.114;7.060;2023-03-05T22:58:39;4.40;99.90
53782;DHT22;39692;53.114;7.060;2023-03-05T23:01:12;4.40;99.90
53782;DHT22;39692;53.114;7.060;2023-03-05T23:03:39;4.50;99.90
53782;DHT22;39692;53.114;7.060;2023-03-05T23:06:05;4.60;99.90
53782;DHT22;39692;53.114;7.060;2023-03-05T23:08:31;4.20;99.90
53782;DHT22;39692;53.114;7.060;2023-03-05T23:10:57;4.60;99.90
53782;DHT22;39692;53.114;7.060;2023-03-05T23:13:24;4.40;99.90
53782;DHT22;39692;53.114;7.060;2023-03-05T23:15:49;4.70;99.90
53782;DHT22;39692;53.114;7.060;2023-03-05T23:18:15;4.60;99.90
53782;DHT22;39692;53.114;7.060;2023-03-05T23:20:41;4.60;99.90
53782;DHT22;39692;53.114;7.060;2023-03-05T23:23:07;4.40;99.90
53782;DHT22;39692;53.114;7.060;2023-03-05T23:25:34;4.40;99.90
53782;DHT22;39692;53.114;7.060;2023-03-05T23:28:01;4.50;99.90
53782;DHT22;39692;53.114;7.060;2023-03-05T23:30:30;4.60;99.90
53782;DHT22;39692;53.114;7.060;2023-03-05T23:33:06;4.50;99.90
53782;DHT22;39692;53.114;7.060;2023-03-05T23:35:37;4.50;99.90
53782;DHT22;39692;53.114;7.060;2023-03-05T23:38:06;4.60;99.90
53782;DHT22;39692;53.114;7.060;2023-03-05T23:40:48;4.70;99.90
53782;DHT22;39692;53.114;7.060;2023-03-05T23:43:16;4.20;99.90
53782;DHT22;39692;53.114;7.060;2023-03-05T23:45:44;4.90;99.90
53782;DHT22;39692;53.114;7.060;2023-03-05T23:48:10;4.70;99.90
53782;DHT22;39692;53.114;7.060;2023-03-05T23:50:39;4.50;99.90
53782;DHT22;39692;53.114;7.060;2023-03-05T23:53:05;4.60;99.90
53782;DHT22;39692;53.114;7.060;2023-03-05T23:55:38;4.70;99.90
53782;DHT22;39692;53.114;7.060;2023-03-05T23:58:04;4.80;99.90
